Cameron Village, North Carolina
Current Conditions -  °F | °C
As of 8:51 AM on Saturday 22 Nov 2014 (Local Time) from KRDU Reporting Station
Scattered Clouds Scattered Clouds  
Wind Chill: 33°   Ceiling: Unl
Heat Index: 33°   Visibility: 10mi
Dew Point: 18°   Wind: 3mph
Humidity: 54%   Direction: 220°SW
Pressure: 30.59"   Gusts: NA
Location:  35.7907°N, 78.6542°W
Report Text: KRDU 221351Z 22003KT 10SM SCT250 01/M08 A3059 RMK AO2 SLP361 T00061078
Loading
Personal Weather Stations






























Interactive Weather Map New forecast layout! Learn more

10-Day Weather Forecast

Advertisements
Track Severe Weather on mobile